createdAt,value
2023-04-07T00:01:55.823Z,7.70
2023-04-07T00:07:17.502Z,7.79
2023-04-07T00:12:39.264Z,7.76
2023-04-07T00:18:01.205Z,7.69
2023-04-07T00:23:22.930Z,7.66
2023-04-07T00:28:44.635Z,7.67
2023-04-07T00:34:06.749Z,7.67
2023-04-07T00:39:28.513Z,7.63
2023-04-07T00:44:50.543Z,7.69
2023-04-07T00:50:12.294Z,7.77
2023-04-07T00:55:34.169Z,7.75
2023-04-07T01:01:21.631Z,7.75
2023-04-07T01:06:50.116Z,7.71
2023-04-07T01:12:18.125Z,7.54
2023-04-07T01:17:48.225Z,7.78
2023-04-07T01:23:17.558Z,7.62
2023-04-07T01:28:55.254Z,7.48
2023-04-07T01:34:18.154Z,7.47
2023-04-07T01:39:40.139Z,7.42
2023-04-07T01:45:02.641Z,7.41
2023-04-07T01:50:25.292Z,7.37
2023-04-07T01:55:47.011Z,7.54
2023-04-07T02:01:08.823Z,7.61
2023-04-07T02:06:46.764Z,7.63
2023-04-07T02:12:11.729Z,7.64
2023-04-07T02:17:37.938Z,7.75
2023-04-07T02:22:59.675Z,7.76
2023-04-07T02:28:21.351Z,7.76
2023-04-07T02:33:43.008Z,7.71
2023-04-07T02:39:04.805Z,7.94
2023-04-07T02:44:26.473Z,7.99
2023-04-07T02:49:48.250Z,7.99
2023-04-07T02:55:10.144Z,8.04
2023-04-07T03:00:31.835Z,8.02
2023-04-07T03:05:53.523Z,8.03
2023-04-07T03:11:15.504Z,8.10
2023-04-07T03:16:37.195Z,7.92
2023-04-07T03:21:58.960Z,7.89
2023-04-07T03:27:20.711Z,7.87
2023-04-07T03:32:42.478Z,7.82
2023-04-07T03:38:04.200Z,7.68
2023-04-07T03:43:26.578Z,7.71
2023-04-07T03:48:48.262Z,7.80
2023-04-07T03:54:10.025Z,7.77
2023-04-07T03:59:31.709Z,7.90
2023-04-07T04:04:53.525Z,8.01
2023-04-07T04:10:16.159Z,8.03
2023-04-07T04:15:37.876Z,8.05
2023-04-07T04:20:59.620Z,8.18
2023-04-07T04:26:25.740Z,8.15
2023-04-07T04:31:47.861Z,8.20
2023-04-07T04:37:09.764Z,8.19
2023-04-07T04:42:33.746Z,8.12
2023-04-07T04:47:55.680Z,8.01
2023-04-07T04:53:17.461Z,8.05
2023-04-07T04:58:40.414Z,8.06
2023-04-07T05:04:02.503Z,8.12
2023-04-07T05:09:24.344Z,8.12
2023-04-07T05:14:46.157Z,8.08
2023-04-07T05:20:11.431Z,7.95
2023-04-07T05:25:33.401Z,7.92
2023-04-07T05:30:55.193Z,7.97
2023-04-07T05:36:17.121Z,8.02
2023-04-07T05:41:38.878Z,8.07
2023-04-07T05:47:01.167Z,8.19
2023-04-07T05:52:22.872Z,8.21
2023-04-07T05:57:44.588Z,8.08
2023-04-07T06:03:06.348Z,8.23
2023-04-07T06:08:28.174Z,8.13
2023-04-07T06:13:50.157Z,8.16
2023-04-07T06:19:12.095Z,8.15
2023-04-07T06:24:33.764Z,8.60
2023-04-07T06:29:56.558Z,8.46
2023-04-07T06:35:18.308Z,8.34
2023-04-07T06:40:40.047Z,8.50
2023-04-07T06:46:01.750Z,8.61
2023-04-07T06:51:23.459Z,8.74
2023-04-07T06:56:45.357Z,8.65
2023-04-07T07:02:07.656Z,8.57
2023-04-07T07:07:29.684Z,8.64
2023-04-07T07:12:51.762Z,8.77
2023-04-07T07:18:13.428Z,8.75
2023-04-07T07:23:35.118Z,8.71
2023-04-07T07:28:56.889Z,8.71
2023-04-07T07:34:18.604Z,8.81
2023-04-07T07:39:40.388Z,8.89
2023-04-07T07:45:02.069Z,8.96
2023-04-07T07:50:23.855Z,8.96
2023-04-07T07:55:47.149Z,9.04
2023-04-07T08:01:08.889Z,9.03
2023-04-07T08:06:31.500Z,8.97
2023-04-07T08:11:53.356Z,9.03
2023-04-07T08:17:15.386Z,9.36
2023-04-07T08:22:37.547Z,9.53
2023-04-07T08:27:59.248Z,9.66
2023-04-07T08:33:20.899Z,9.73
2023-04-07T08:38:42.601Z,9.78
2023-04-07T08:44:08.644Z,9.71
2023-04-07T08:49:33.040Z,9.82
2023-04-07T08:54:56.003Z,9.81
2023-04-07T09:00:18.489Z,9.92
2023-04-07T09:05:40.503Z,9.91
2023-04-07T09:11:02.707Z,10.13
2023-04-07T09:16:25.557Z,10.12
2023-04-07T09:21:49.873Z,10.34
2023-04-07T09:27:19.119Z,10.24
2023-04-07T09:32:41.499Z,10.40
2023-04-07T09:38:08.434Z,10.46
2023-04-07T09:43:30.136Z,10.63
2023-04-07T09:49:07.337Z,10.70
2023-04-07T09:54:42.441Z,10.74
2023-04-07T10:00:05.270Z,10.77
2023-04-07T10:05:28.512Z,10.93
2023-04-07T10:10:51.311Z,10.97
2023-04-07T10:16:13.469Z,11.00
2023-04-07T10:21:39.308Z,10.98
2023-04-07T10:27:08.072Z,11.00
2023-04-07T10:32:29.881Z,11.20
2023-04-07T10:38:06.935Z,11.14
2023-04-07T10:43:41.520Z,11.11
2023-04-07T10:49:10.235Z,11.12
2023-04-07T10:54:31.925Z,11.19
2023-04-07T11:00:11.921Z,11.32
2023-04-07T11:05:33.740Z,11.41
2023-04-07T11:10:55.483Z,11.56
2023-04-07T11:16:35.596Z,12.05
2023-04-07T11:27:44.802Z,11.84
2023-04-07T11:33:07.700Z,11.56
2023-04-07T11:38:35.343Z,11.45
2023-04-07T11:44:10.914Z,11.38
2023-04-07T11:49:32.709Z,11.39
2023-04-07T11:54:54.759Z,11.38
2023-04-07T12:00:16.710Z,11.29
2023-04-07T12:05:43.230Z,11.17
2023-04-07T12:11:05.356Z,11.12
2023-04-07T12:16:27.620Z,11.03
2023-04-07T12:21:49.607Z,10.70
2023-04-07T12:27:11.728Z,10.50
2023-04-07T12:32:33.950Z,10.49
2023-04-07T12:37:58.541Z,10.47
2023-04-07T12:43:20.291Z,10.49
2023-04-07T12:48:42.160Z,10.53
2023-04-07T12:54:04.302Z,10.57
2023-04-07T12:59:26.070Z,10.64
2023-04-07T13:04:47.787Z,10.56
2023-04-07T13:10:09.878Z,10.62
2023-04-07T13:15:31.554Z,10.62
2023-04-07T13:21:13.152Z,10.66
2023-04-07T13:26:35.059Z,10.63
2023-04-07T13:32:07.293Z,10.67
2023-04-07T13:37:29.024Z,10.67
2023-04-07T13:42:51.092Z,10.70
2023-04-07T13:48:12.905Z,10.67
2023-04-07T13:53:34.618Z,10.70
2023-04-07T13:58:56.434Z,10.64
2023-04-07T14:04:18.170Z,10.62
2023-04-07T14:09:40.011Z,10.69
2023-04-07T14:15:01.948Z,10.76
2023-04-07T14:20:24.955Z,10.81
2023-04-07T14:25:48.350Z,10.89
2023-04-07T14:31:17.010Z,10.92
2023-04-07T14:36:38.849Z,11.01
2023-04-07T14:42:00.767Z,11.10
2023-04-07T14:47:22.588Z,11.06
2023-04-07T14:52:44.574Z,11.03
2023-04-07T14:58:06.332Z,11.10
2023-04-07T15:03:28.194Z,11.10
2023-04-07T15:08:50.188Z,11.08
2023-04-07T15:14:12.324Z,11.08
2023-04-07T15:19:34.123Z,11.08
2023-04-07T15:24:55.962Z,11.12
2023-04-07T15:30:17.820Z,11.11
2023-04-07T15:35:42.611Z,11.20
2023-04-07T15:41:04.428Z,11.26
2023-04-07T15:46:26.847Z,11.36
2023-04-07T15:51:49.128Z,11.43
2023-04-07T15:57:11.527Z,11.46
2023-04-07T16:02:33.348Z,11.53
2023-04-07T16:07:55.190Z,11.50
2023-04-07T16:13:16.963Z,11.46
2023-04-07T16:18:38.760Z,11.44
2023-04-07T16:24:00.518Z,11.39
2023-04-07T16:29:25.190Z,11.27
2023-04-07T16:34:46.946Z,11.26
2023-04-07T16:40:10.078Z,11.19
2023-04-07T16:45:31.806Z,11.27
2023-04-07T16:50:53.570Z,11.12
2023-04-07T16:56:19.571Z,10.95
2023-04-07T17:01:42.994Z,10.82
2023-04-07T17:07:05.581Z,10.85
2023-04-07T17:12:27.368Z,10.81
2023-04-07T17:17:50.213Z,10.80
2023-04-07T17:23:12.085Z,10.73
2023-04-07T17:28:33.881Z,10.64
2023-04-07T17:33:55.593Z,10.62
2023-04-07T17:39:17.512Z,10.60
2023-04-07T17:44:39.254Z,10.76
2023-04-07T17:50:01.844Z,10.76
2023-04-07T17:55:23.985Z,10.89
2023-04-07T18:00:46.045Z,10.83
2023-04-07T18:06:09.258Z,10.79
2023-04-07T18:11:32.339Z,10.76
2023-04-07T18:16:55.248Z,10.71
2023-04-07T18:22:18.043Z,10.75
2023-04-07T18:27:40.175Z,10.62
2023-04-07T18:33:01.970Z,10.55
2023-04-07T18:38:23.699Z,10.57
2023-04-07T18:43:48.748Z,10.44
2023-04-07T18:49:10.692Z,10.31
2023-04-07T18:54:32.594Z,10.26
2023-04-07T18:59:55.392Z,10.21
2023-04-07T19:05:17.214Z,10.22
2023-04-07T19:10:38.934Z,10.16
2023-04-07T19:16:01.686Z,10.15
2023-04-07T19:21:23.503Z,10.13
2023-04-07T19:26:45.264Z,10.08
2023-04-07T19:32:07.130Z,9.86
2023-04-07T19:37:29.074Z,9.87
2023-04-07T19:42:55.365Z,9.85
2023-04-07T19:48:17.529Z,9.81
2023-04-07T19:53:39.292Z,9.87
2023-04-07T19:59:01.042Z,9.86
2023-04-07T20:04:22.789Z,9.78
2023-04-07T20:09:44.909Z,9.66
2023-04-07T20:15:07.889Z,9.77
2023-04-07T20:20:29.705Z,9.70
2023-04-07T20:25:51.708Z,9.67
2023-04-07T20:31:13.523Z,9.75
2023-04-07T20:36:35.401Z,9.84
2023-04-07T20:41:57.177Z,9.85
2023-04-07T20:47:19.020Z,9.78
2023-04-07T20:52:43.364Z,9.75
2023-04-07T20:58:05.123Z,9.77
2023-04-07T21:03:28.011Z,9.82
2023-04-07T21:08:50.081Z,9.79
2023-04-07T21:14:12.477Z,9.73
2023-04-07T21:19:34.196Z,9.69
2023-04-07T21:24:57.365Z,9.56
2023-04-07T21:30:21.056Z,9.62
2023-04-07T21:35:42.805Z,9.54
2023-04-07T21:41:04.631Z,9.53
2023-04-07T21:46:27.080Z,9.49
2023-04-07T21:51:49.302Z,9.58
2023-04-07T21:57:12.744Z,9.61
2023-04-07T22:02:35.486Z,9.65
2023-04-07T22:07:57.437Z,9.64
2023-04-07T22:13:19.153Z,9.58
2023-04-07T22:18:40.825Z,9.59
2023-04-07T22:24:02.532Z,9.62
2023-04-07T22:29:24.289Z,9.49
2023-04-07T22:34:46.607Z,9.38
2023-04-07T22:40:09.471Z,9.53
2023-04-07T22:45:31.540Z,9.50
2023-04-07T22:50:54.536Z,9.57
2023-04-07T22:56:16.265Z,9.55
2023-04-07T23:01:38.284Z,9.53
2023-04-07T23:07:00.330Z,9.56
2023-04-07T23:12:22.090Z,9.61
2023-04-07T23:17:43.842Z,9.50
2023-04-07T23:23:05.749Z,9.57
2023-04-07T23:28:28.057Z,9.54
2023-04-07T23:33:49.719Z,9.56
2023-04-07T23:39:11.495Z,9.55
2023-04-07T23:44:33.225Z,9.47
2023-04-07T23:49:54.893Z,9.45
2023-04-07T23:55:16.657Z,9.45
